sensor_id;sensor_type;location;lat;lon;timestamp;P1;durP1;ratioP1;P2;durP2;ratioP2
18893;SDS011;9579;49.488;8.226;2022-11-14T06:05:34;22.20;;;20.20;;
18893;SDS011;9579;49.488;8.226;2022-11-14T06:08:23;20.63;;;18.63;;
18893;SDS011;9579;49.488;8.226;2022-11-14T06:11:11;20.77;;;18.80;;
18893;SDS011;9579;49.488;8.226;2022-11-14T06:13:59;22.20;;;20.00;;
18893;SDS011;9579;49.488;8.226;2022-11-14T06:16:46;22.00;;;19.80;;
18893;SDS011;9579;49.488;8.226;2022-11-14T06:19:33;22.90;;;20.70;;
18893;SDS011;9579;49.488;8.226;2022-11-14T06:22:22;23.87;;;21.43;;
18893;SDS011;9579;49.488;8.226;2022-11-14T06:25:09;23.53;;;21.30;;
18893;SDS011;9579;49.488;8.226;2022-11-14T06:27:57;23.77;;;21.47;;
18893;SDS011;9579;49.488;8.226;2022-11-14T06:30:44;24.27;;;21.97;;
18893;SDS011;9579;49.488;8.226;2022-11-14T06:33:32;23.97;;;21.57;;
18893;SDS011;9579;49.488;8.226;2022-11-14T06:36:20;23.40;;;21.00;;
18893;SDS011;9579;49.488;8.226;2022-11-14T06:39:09;22.17;;;19.87;;
18893;SDS011;9579;49.488;8.226;2022-11-14T06:41:56;21.90;;;19.60;;
18893;SDS011;9579;49.488;8.226;2022-11-14T06:44:43;23.40;;;20.90;;
18893;SDS011;9579;49.488;8.226;2022-11-14T06:47:30;22.80;;;20.07;;
18893;SDS011;9579;49.488;8.226;2022-11-14T06:50:17;22.77;;;20.47;;
18893;SDS011;9579;49.488;8.226;2022-11-14T06:53:04;23.23;;;20.57;;
18893;SDS011;9579;49.488;8.226;2022-11-14T06:55:54;24.17;;;21.50;;
18893;SDS011;9579;49.488;8.226;2022-11-14T06:58:42;24.10;;;21.20;;
18893;SDS011;9579;49.488;8.226;2022-11-14T07:01:30;25.60;;;21.87;;
18893;SDS011;9579;49.488;8.226;2022-11-14T07:04:17;26.63;;;23.13;;
18893;SDS011;9579;49.488;8.226;2022-11-14T07:07:04;24.73;;;21.63;;
18893;SDS011;9579;49.488;8.226;2022-11-14T07:09:51;23.97;;;21.43;;
18893;SDS011;9579;49.488;8.226;2022-11-14T07:12:42;25.37;;;21.93;;
18893;SDS011;9579;49.488;8.226;2022-11-14T07:15:29;25.80;;;22.50;;
18893;SDS011;9579;49.488;8.226;2022-11-14T07:18:16;26.03;;;22.07;;
18893;SDS011;9579;49.488;8.226;2022-11-14T07:21:06;27.73;;;22.60;;
18893;SDS011;9579;49.488;8.226;2022-11-14T07:23:53;23.33;;;20.83;;
18893;SDS011;9579;49.488;8.226;2022-11-14T07:26:41;24.37;;;21.07;;
18893;SDS011;9579;49.488;8.226;2022-11-14T07:29:29;24.40;;;20.83;;
18893;SDS011;9579;49.488;8.226;2022-11-14T07:32:16;25.03;;;22.33;;
18893;SDS011;9579;49.488;8.226;2022-11-14T07:35:03;23.07;;;20.47;;
18893;SDS011;9579;49.488;8.226;2022-11-14T07:37:51;23.80;;;20.77;;
18893;SDS011;9579;49.488;8.226;2022-11-14T07:40:38;22.53;;;20.13;;
18893;SDS011;9579;49.488;8.226;2022-11-14T07:43:26;21.60;;;19.43;;
18893;SDS011;9579;49.488;8.226;2022-11-14T07:46:15;21.93;;;19.63;;
18893;SDS011;9579;49.488;8.226;2022-11-14T07:49:03;19.77;;;17.90;;
18893;SDS011;9579;49.488;8.226;2022-11-14T07:51:50;20.10;;;18.20;;
18893;SDS011;9579;49.488;8.226;2022-11-14T07:54:37;18.47;;;16.77;;
18893;SDS011;9579;49.488;8.226;2022-11-14T07:57:24;17.37;;;15.67;;
18893;SDS011;9579;49.488;8.226;2022-11-14T08:00:14;16.77;;;15.17;;
18893;SDS011;9579;49.488;8.226;2022-11-14T08:03:03;17.37;;;15.77;;
18893;SDS011;9579;49.488;8.226;2022-11-14T08:05:58;16.93;;;15.43;;
18893;SDS011;9579;49.488;8.226;2022-11-14T08:08:45;15.00;;;13.60;;
18893;SDS011;9579;49.488;8.226;2022-11-14T08:11:32;15.57;;;14.17;;
18893;SDS011;9579;49.488;8.226;2022-11-14T08:14:35;15.53;;;14.17;;
18893;SDS011;9579;49.488;8.226;2022-11-14T08:17:22;16.20;;;14.80;;
18893;SDS011;9579;49.488;8.226;2022-11-14T08:20:11;15.57;;;14.17;;
18893;SDS011;9579;49.488;8.226;2022-11-14T08:23:02;15.00;;;13.70;;
18893;SDS011;9579;49.488;8.226;2022-11-14T08:25:51;16.63;;;15.20;;
18893;SDS011;9579;49.488;8.226;2022-11-14T08:28:39;16.97;;;15.57;;
18893;SDS011;9579;49.488;8.226;2022-11-14T08:31:26;15.57;;;14.27;;
18893;SDS011;9579;49.488;8.226;2022-11-14T08:34:14;15.47;;;14.17;;
18893;SDS011;9579;49.488;8.226;2022-11-14T08:37:02;17.57;;;16.07;;
18893;SDS011;9579;49.488;8.226;2022-11-14T08:39:49;17.70;;;16.03;;
18893;SDS011;9579;49.488;8.226;2022-11-14T08:42:36;16.17;;;14.77;;
18893;SDS011;9579;49.488;8.226;2022-11-14T08:45:24;16.03;;;14.70;;
18893;SDS011;9579;49.488;8.226;2022-11-14T08:48:11;16.63;;;15.13;;
18893;SDS011;9579;49.488;8.226;2022-11-14T08:51:02;16.20;;;14.90;;
18893;SDS011;9579;49.488;8.226;2022-11-14T08:53:51;16.43;;;14.93;;
18893;SDS011;9579;49.488;8.226;2022-11-14T08:56:40;18.33;;;16.73;;
18893;SDS011;9579;49.488;8.226;2022-11-14T08:59:27;16.87;;;15.47;;
18893;SDS011;9579;49.488;8.226;2022-11-14T09:02:14;17.30;;;15.80;;
18893;SDS011;9579;49.488;8.226;2022-11-14T09:05:02;16.97;;;15.47;;
18893;SDS011;9579;49.488;8.226;2022-11-14T09:07:50;16.27;;;14.97;;
18893;SDS011;9579;49.488;8.226;2022-11-14T09:10:38;17.03;;;15.63;;
18893;SDS011;9579;49.488;8.226;2022-11-14T09:13:25;16.17;;;14.80;;
18893;SDS011;9579;49.488;8.226;2022-11-14T09:16:15;15.50;;;14.10;;
18893;SDS011;9579;49.488;8.226;2022-11-14T09:19:02;16.70;;;15.20;;
18893;SDS011;9579;49.488;8.226;2022-11-14T09:21:49;16.50;;;15.10;;
18893;SDS011;9579;49.488;8.226;2022-11-14T09:24:36;15.40;;;13.90;;
18893;SDS011;9579;49.488;8.226;2022-11-14T09:27:26;16.30;;;14.90;;
18893;SDS011;9579;49.488;8.226;2022-11-14T09:30:13;16.23;;;14.93;;
18893;SDS011;9579;49.488;8.226;2022-11-14T09:33:01;15.53;;;14.23;;
18893;SDS011;9579;49.488;8.226;2022-11-14T09:35:54;16.03;;;14.53;;
18893;SDS011;9579;49.488;8.226;2022-11-14T09:38:42;15.13;;;13.83;;
18893;SDS011;9579;49.488;8.226;2022-11-14T09:41:33;14.90;;;13.70;;
18893;SDS011;9579;49.488;8.226;2022-11-14T09:44:47;13.77;;;12.67;;
18893;SDS011;9579;49.488;8.226;2022-11-14T09:47:40;14.87;;;13.63;;
18893;SDS011;9579;49.488;8.226;2022-11-14T09:50:31;14.80;;;13.50;;
18893;SDS011;9579;49.488;8.226;2022-11-14T09:53:22;13.93;;;12.77;;
18893;SDS011;9579;49.488;8.226;2022-11-14T09:56:17;13.93;;;12.73;;
18893;SDS011;9579;49.488;8.226;2022-11-14T09:59:07;14.10;;;12.90;;
18893;SDS011;9579;49.488;8.226;2022-11-14T10:01:58;14.03;;;12.83;;
18893;SDS011;9579;49.488;8.226;2022-11-14T10:04:54;14.07;;;12.87;;
18893;SDS011;9579;49.488;8.226;2022-11-14T10:08:00;13.67;;;12.57;;
18893;SDS011;9579;49.488;8.226;2022-11-14T10:11:06;14.67;;;13.37;;
18893;SDS011;9579;49.488;8.226;2022-11-14T10:17:28;14.67;;;13.43;;
18893;SDS011;9579;49.488;8.226;2022-11-14T10:20:32;12.63;;;11.60;;
18893;SDS011;9579;49.488;8.226;2022-11-14T10:23:28;14.40;;;13.10;;
18893;SDS011;9579;49.488;8.226;2022-11-14T10:26:25;13.33;;;12.13;;
18893;SDS011;9579;49.488;8.226;2022-11-14T10:29:27;14.27;;;13.07;;
18893;SDS011;9579;49.488;8.226;2022-11-14T10:32:27;13.17;;;12.07;;
18893;SDS011;9579;49.488;8.226;2022-11-14T10:35:23;13.37;;;12.27;;
18893;SDS011;9579;49.488;8.226;2022-11-14T10:38:15;13.40;;;12.20;;
18893;SDS011;9579;49.488;8.226;2022-11-14T10:41:08;14.07;;;12.97;;
18893;SDS011;9579;49.488;8.226;2022-11-14T10:43:55;13.00;;;11.97;;
18893;SDS011;9579;49.488;8.226;2022-11-14T10:46:44;13.30;;;12.10;;
18893;SDS011;9579;49.488;8.226;2022-11-14T10:49:35;13.40;;;12.27;;
18893;SDS011;9579;49.488;8.226;2022-11-14T10:52:25;13.13;;;12.10;;
18893;SDS011;9579;49.488;8.226;2022-11-14T10:55:22;13.97;;;12.77;;
18893;SDS011;9579;49.488;8.226;2022-11-14T10:58:09;13.73;;;12.53;;
18893;SDS011;9579;49.488;8.226;2022-11-14T11:04:23;13.43;;;12.33;;
18893;SDS011;9579;49.488;8.226;2022-11-14T11:07:19;14.10;;;12.80;;
18893;SDS011;9579;49.488;8.226;2022-11-14T11:10:25;12.17;;;11.17;;
18893;SDS011;9579;49.488;8.226;2022-11-14T11:13:31;13.63;;;12.43;;
18893;SDS011;9579;49.488;8.226;2022-11-14T11:16:20;13.83;;;12.60;;
18893;SDS011;9579;49.488;8.226;2022-11-14T11:19:12;12.70;;;11.60;;
18893;SDS011;9579;49.488;8.226;2022-11-14T11:22:01;13.97;;;12.77;;
18893;SDS011;9579;49.488;8.226;2022-11-14T11:24:50;12.93;;;11.87;;
18893;SDS011;9579;49.488;8.226;2022-11-14T11:27:37;12.10;;;11.10;;
18893;SDS011;9579;49.488;8.226;2022-11-14T11:30:27;12.87;;;11.77;;
18893;SDS011;9579;49.488;8.226;2022-11-14T11:33:15;13.80;;;12.70;;
18893;SDS011;9579;49.488;8.226;2022-11-14T11:36:10;13.10;;;12.00;;
18893;SDS011;9579;49.488;8.226;2022-11-14T11:39:00;13.27;;;12.07;;
18893;SDS011;9579;49.488;8.226;2022-11-14T11:41:49;13.20;;;12.10;;
18893;SDS011;9579;49.488;8.226;2022-11-14T11:44:42;13.87;;;12.67;;
18893;SDS011;9579;49.488;8.226;2022-11-14T11:47:32;12.70;;;11.70;;
18893;SDS011;9579;49.488;8.226;2022-11-14T11:50:23;12.07;;;11.07;;
18893;SDS011;9579;49.488;8.226;2022-11-14T11:53:14;12.03;;;11.00;;
18893;SDS011;9579;49.488;8.226;2022-11-14T11:56:09;11.80;;;10.80;;
18893;SDS011;9579;49.488;8.226;2022-11-14T11:59:04;11.77;;;10.77;;
18893;SDS011;9579;49.488;8.226;2022-11-14T12:02:13;11.60;;;10.60;;
18893;SDS011;9579;49.488;8.226;2022-11-14T12:05:12;11.57;;;10.57;;
18893;SDS011;9579;49.488;8.226;2022-11-14T12:08:02;11.07;;;10.17;;
18893;SDS011;9579;49.488;8.226;2022-11-14T12:10:55;11.73;;;10.83;;
18893;SDS011;9579;49.488;8.226;2022-11-14T12:13:49;12.10;;;11.07;;
18893;SDS011;9579;49.488;8.226;2022-11-14T12:17:11;12.10;;;11.03;;
18893;SDS011;9579;49.488;8.226;2022-11-14T12:20:28;11.30;;;10.40;;
18893;SDS011;9579;49.488;8.226;2022-11-14T12:23:32;11.97;;;10.97;;
18893;SDS011;9579;49.488;8.226;2022-11-14T12:30:03;11.73;;;10.73;;
18893;SDS011;9579;49.488;8.226;2022-11-14T12:32:59;12.47;;;11.47;;
18893;SDS011;9579;49.488;8.226;2022-11-14T12:35:50;11.23;;;10.23;;
18893;SDS011;9579;49.488;8.226;2022-11-14T12:38:43;10.57;;;9.67;;
18893;SDS011;9579;49.488;8.226;2022-11-14T12:41:33;12.07;;;10.97;;
18893;SDS011;9579;49.488;8.226;2022-11-14T12:44:30;11.27;;;10.27;;
18893;SDS011;9579;49.488;8.226;2022-11-14T12:47:21;10.77;;;9.87;;
18893;SDS011;9579;49.488;8.226;2022-11-14T12:53:39;11.57;;;10.67;;
18893;SDS011;9579;49.488;8.226;2022-11-14T12:59:59;10.93;;;10.03;;
18893;SDS011;9579;49.488;8.226;2022-11-14T13:02:59;11.10;;;10.17;;
18893;SDS011;9579;49.488;8.226;2022-11-14T13:06:02;11.40;;;10.50;;
18893;SDS011;9579;49.488;8.226;2022-11-14T13:12:17;11.70;;;10.60;;
18893;SDS011;9579;49.488;8.226;2022-11-14T13:15:31;9.63;;;8.80;;
18893;SDS011;9579;49.488;8.226;2022-11-14T13:18:49;10.00;;;9.20;;
18893;SDS011;9579;49.488;8.226;2022-11-14T13:25:19;9.83;;;9.03;;
18893;SDS011;9579;49.488;8.226;2022-11-14T13:31:48;10.43;;;9.63;;
18893;SDS011;9579;49.488;8.226;2022-11-14T13:34:39;11.27;;;10.27;;
18893;SDS011;9579;49.488;8.226;2022-11-14T13:41:00;11.40;;;10.40;;
18893;SDS011;9579;49.488;8.226;2022-11-14T13:44:03;11.57;;;10.63;;
18893;SDS011;9579;49.488;8.226;2022-11-14T13:47:12;10.30;;;9.50;;
18893;SDS011;9579;49.488;8.226;2022-11-14T13:50:12;11.00;;;9.97;;
18893;SDS011;9579;49.488;8.226;2022-11-14T13:53:00;11.07;;;10.03;;
18893;SDS011;9579;49.488;8.226;2022-11-14T13:55:51;10.17;;;9.37;;
18893;SDS011;9579;49.488;8.226;2022-11-14T13:59:02;11.87;;;10.80;;
18893;SDS011;9579;49.488;8.226;2022-11-14T14:02:32;10.83;;;9.83;;
18893;SDS011;9579;49.488;8.226;2022-11-14T14:05:33;11.50;;;10.50;;
18893;SDS011;9579;49.488;8.226;2022-11-14T14:08:38;10.27;;;9.37;;
18893;SDS011;9579;49.488;8.226;2022-11-14T14:11:41;12.00;;;11.00;;
18893;SDS011;9579;49.488;8.226;2022-11-14T14:14:48;12.07;;;10.97;;
18893;SDS011;9579;49.488;8.226;2022-11-14T14:17:45;12.20;;;11.20;;
18893;SDS011;9579;49.488;8.226;2022-11-14T14:20:44;12.63;;;11.63;;
18893;SDS011;9579;49.488;8.226;2022-11-14T14:23:39;13.27;;;12.07;;
18893;SDS011;9579;49.488;8.226;2022-11-14T14:26:34;12.17;;;11.17;;
18893;SDS011;9579;49.488;8.226;2022-11-14T14:29:41;13.10;;;12.00;;
18893;SDS011;9579;49.488;8.226;2022-11-14T14:32:37;13.60;;;12.40;;
18893;SDS011;9579;49.488;8.226;2022-11-14T14:35:25;13.07;;;11.97;;
18893;SDS011;9579;49.488;8.226;2022-11-14T14:38:21;12.57;;;11.47;;
18893;SDS011;9579;49.488;8.226;2022-11-14T14:41:10;11.70;;;10.70;;
18893;SDS011;9579;49.488;8.226;2022-11-14T14:43:59;14.20;;;13.00;;
18893;SDS011;9579;49.488;8.226;2022-11-14T14:46:47;13.43;;;12.27;;
18893;SDS011;9579;49.488;8.226;2022-11-14T14:49:35;14.03;;;12.73;;
18893;SDS011;9579;49.488;8.226;2022-11-14T14:52:26;12.97;;;11.83;;
18893;SDS011;9579;49.488;8.226;2022-11-14T14:55:18;12.30;;;11.20;;
18893;SDS011;9579;49.488;8.226;2022-11-14T14:58:13;12.10;;;11.13;;
18893;SDS011;9579;49.488;8.226;2022-11-14T15:01:02;13.57;;;12.47;;
18893;SDS011;9579;49.488;8.226;2022-11-14T15:03:51;12.27;;;11.23;;
18893;SDS011;9579;49.488;8.226;2022-11-14T15:06:43;13.47;;;12.27;;
18893;SDS011;9579;49.488;8.226;2022-11-14T15:09:31;13.43;;;12.23;;
18893;SDS011;9579;49.488;8.226;2022-11-14T15:12:20;12.60;;;11.60;;
18893;SDS011;9579;49.488;8.226;2022-11-14T15:15:10;14.13;;;12.93;;
18893;SDS011;9579;49.488;8.226;2022-11-14T15:17:58;13.43;;;12.33;;
18893;SDS011;9579;49.488;8.226;2022-11-14T15:21:10;14.07;;;12.87;;
18893;SDS011;9579;49.488;8.226;2022-11-14T15:24:01;12.93;;;11.83;;
18893;SDS011;9579;49.488;8.226;2022-11-14T15:26:58;13.23;;;12.13;;
18893;SDS011;9579;49.488;8.226;2022-11-14T15:29:51;13.27;;;12.07;;
18893;SDS011;9579;49.488;8.226;2022-11-14T15:32:46;13.53;;;12.33;;
18893;SDS011;9579;49.488;8.226;2022-11-14T15:35:35;13.07;;;11.97;;
18893;SDS011;9579;49.488;8.226;2022-11-14T15:38:23;13.47;;;12.37;;
18893;SDS011;9579;49.488;8.226;2022-11-14T15:41:15;13.07;;;11.80;;
18893;SDS011;9579;49.488;8.226;2022-11-14T15:44:04;13.90;;;12.60;;
18893;SDS011;9579;49.488;8.226;2022-11-14T15:46:53;13.73;;;12.53;;
18893;SDS011;9579;49.488;8.226;2022-11-14T15:49:43;13.47;;;12.27;;
18893;SDS011;9579;49.488;8.226;2022-11-14T15:52:45;14.37;;;13.07;;
18893;SDS011;9579;49.488;8.226;2022-11-14T15:55:34;15.00;;;13.60;;
18893;SDS011;9579;49.488;8.226;2022-11-14T15:58:28;12.17;;;11.17;;
18893;SDS011;9579;49.488;8.226;2022-11-14T16:01:17;14.40;;;13.10;;
18893;SDS011;9579;49.488;8.226;2022-11-14T16:04:10;13.30;;;12.00;;
18893;SDS011;9579;49.488;8.226;2022-11-14T16:07:01;12.70;;;11.60;;
18893;SDS011;9579;49.488;8.226;2022-11-14T16:09:48;13.27;;;11.97;;
18893;SDS011;9579;49.488;8.226;2022-11-14T16:12:36;12.93;;;11.90;;
18893;SDS011;9579;49.488;8.226;2022-11-14T16:15:23;12.60;;;11.50;;
18893;SDS011;9579;49.488;8.226;2022-11-14T16:18:10;13.97;;;12.67;;
18893;SDS011;9579;49.488;8.226;2022-11-14T16:20:59;13.50;;;12.30;;
18893;SDS011;9579;49.488;8.226;2022-11-14T16:23:47;13.00;;;11.90;;
18893;SDS011;9579;49.488;8.226;2022-11-14T16:26:34;13.10;;;12.00;;
18893;SDS011;9579;49.488;8.226;2022-11-14T16:29:22;13.43;;;12.17;;
18893;SDS011;9579;49.488;8.226;2022-11-14T16:32:10;13.50;;;12.30;;
18893;SDS011;9579;49.488;8.226;2022-11-14T16:34:57;12.47;;;11.43;;
18893;SDS011;9579;49.488;8.226;2022-11-14T16:37:46;13.07;;;11.90;;
18893;SDS011;9579;49.488;8.226;2022-11-14T16:40:34;13.17;;;12.07;;
18893;SDS011;9579;49.488;8.226;2022-11-14T16:43:21;13.00;;;11.90;;
18893;SDS011;9579;49.488;8.226;2022-11-14T16:46:08;14.60;;;13.30;;
18893;SDS011;9579;49.488;8.226;2022-11-14T16:48:56;14.57;;;13.33;;
18893;SDS011;9579;49.488;8.226;2022-11-14T16:51:45;13.53;;;12.23;;
18893;SDS011;9579;49.488;8.226;2022-11-14T16:54:44;13.47;;;12.27;;
18893;SDS011;9579;49.488;8.226;2022-11-14T16:57:42;14.40;;;13.10;;
18893;SDS011;9579;49.488;8.226;2022-11-14T17:00:29;13.93;;;12.73;;
18893;SDS011;9579;49.488;8.226;2022-11-14T17:03:20;13.23;;;11.93;;
18893;SDS011;9579;49.488;8.226;2022-11-14T17:06:07;13.77;;;12.47;;
18893;SDS011;9579;49.488;8.226;2022-11-14T17:08:55;13.13;;;11.93;;
18893;SDS011;9579;49.488;8.226;2022-11-14T17:11:47;11.27;;;10.30;;
18893;SDS011;9579;49.488;8.226;2022-11-14T17:14:34;12.57;;;11.47;;
18893;SDS011;9579;49.488;8.226;2022-11-14T17:17:21;12.80;;;11.53;;
18893;SDS011;9579;49.488;8.226;2022-11-14T17:20:09;13.23;;;12.10;;
18893;SDS011;9579;49.488;8.226;2022-11-14T17:22:56;13.43;;;12.23;;
18893;SDS011;9579;49.488;8.226;2022-11-14T17:25:43;14.00;;;12.70;;
18893;SDS011;9579;49.488;8.226;2022-11-14T17:28:32;15.77;;;14.47;;
18893;SDS011;9579;49.488;8.226;2022-11-14T17:31:19;13.37;;;12.27;;
18893;SDS011;9579;49.488;8.226;2022-11-14T17:34:07;13.53;;;12.33;;
18893;SDS011;9579;49.488;8.226;2022-11-14T17:36:57;15.23;;;13.93;;
18893;SDS011;9579;49.488;8.226;2022-11-14T17:39:44;13.70;;;12.53;;
18893;SDS011;9579;49.488;8.226;2022-11-14T17:42:31;13.27;;;12.17;;
18893;SDS011;9579;49.488;8.226;2022-11-14T17:45:19;14.73;;;13.33;;
18893;SDS011;9579;49.488;8.226;2022-11-14T17:48:07;14.93;;;13.57;;
18893;SDS011;9579;49.488;8.226;2022-11-14T17:50:54;13.97;;;12.87;;
18893;SDS011;9579;49.488;8.226;2022-11-14T17:53:41;13.23;;;12.03;;
18893;SDS011;9579;49.488;8.226;2022-11-14T17:56:28;13.70;;;12.40;;
18893;SDS011;9579;49.488;8.226;2022-11-14T17:59:15;13.90;;;12.80;;
18893;SDS011;9579;49.488;8.226;2022-11-14T18:02:07;13.63;;;12.37;;
18893;SDS011;9579;49.488;8.226;2022-11-14T18:04:58;14.90;;;13.33;;
18893;SDS011;9579;49.488;8.226;2022-11-14T18:07:45;14.13;;;12.83;;
18893;SDS011;9579;49.488;8.226;2022-11-14T18:10:32;14.87;;;13.53;;
18893;SDS011;9579;49.488;8.226;2022-11-14T18:13:19;14.23;;;12.93;;
18893;SDS011;9579;49.488;8.226;2022-11-14T18:16:07;17.60;;;13.33;;
18893;SDS011;9579;49.488;8.226;2022-11-14T18:18:58;15.27;;;13.77;;
18893;SDS011;9579;49.488;8.226;2022-11-14T18:21:45;13.20;;;12.00;;
18893;SDS011;9579;49.488;8.226;2022-11-14T18:24:32;13.43;;;12.23;;
18893;SDS011;9579;49.488;8.226;2022-11-14T18:27:20;14.63;;;13.23;;
18893;SDS011;9579;49.488;8.226;2022-11-14T18:30:07;16.17;;;14.50;;
18893;SDS011;9579;49.488;8.226;2022-11-14T18:32:55;14.50;;;13.20;;
18893;SDS011;9579;49.488;8.226;2022-11-14T18:35:44;15.63;;;14.10;;
18893;SDS011;9579;49.488;8.226;2022-11-14T18:38:40;16.93;;;15.33;;
18893;SDS011;9579;49.488;8.226;2022-11-14T18:41:28;20.03;;;18.13;;
18893;SDS011;9579;49.488;8.226;2022-11-14T18:44:15;16.63;;;14.33;;
18893;SDS011;9579;49.488;8.226;2022-11-14T18:47:03;15.20;;;13.80;;
18893;SDS011;9579;49.488;8.226;2022-11-14T18:49:50;14.50;;;13.07;;
18893;SDS011;9579;49.488;8.226;2022-11-14T18:52:39;16.77;;;15.10;;
18893;SDS011;9579;49.488;8.226;2022-11-14T18:55:26;15.27;;;13.80;;
18893;SDS011;9579;49.488;8.226;2022-11-14T18:58:13;15.20;;;13.80;;
18893;SDS011;9579;49.488;8.226;2022-11-14T19:01:06;14.33;;;13.03;;
18893;SDS011;9579;49.488;8.226;2022-11-14T19:03:55;15.30;;;13.90;;
18893;SDS011;9579;49.488;8.226;2022-11-14T19:06:43;13.00;;;11.80;;
18893;SDS011;9579;49.488;8.226;2022-11-14T19:09:32;14.03;;;12.73;;
18893;SDS011;9579;49.488;8.226;2022-11-14T19:12:19;14.57;;;13.27;;
18893;SDS011;9579;49.488;8.226;2022-11-14T19:15:08;14.10;;;12.90;;
18893;SDS011;9579;49.488;8.226;2022-11-14T19:17:56;13.80;;;12.60;;
18893;SDS011;9579;49.488;8.226;2022-11-14T19:20:53;13.93;;;12.63;;
18893;SDS011;9579;49.488;8.226;2022-11-14T19:23:41;14.57;;;13.27;;
18893;SDS011;9579;49.488;8.226;2022-11-14T19:26:30;14.40;;;13.03;;
18893;SDS011;9579;49.488;8.226;2022-11-14T19:29:17;14.03;;;12.73;;
18893;SDS011;9579;49.488;8.226;2022-11-14T19:32:04;13.40;;;12.20;;
18893;SDS011;9579;49.488;8.226;2022-11-14T19:34:51;13.90;;;12.60;;
18893;SDS011;9579;49.488;8.226;2022-11-14T19:37:39;13.57;;;12.37;;
18893;SDS011;9579;49.488;8.226;2022-11-14T19:40:26;14.00;;;12.67;;
18893;SDS011;9579;49.488;8.226;2022-11-14T19:43:15;15.33;;;13.87;;
18893;SDS011;9579;49.488;8.226;2022-11-14T19:46:03;20.37;;;18.37;;
18893;SDS011;9579;49.488;8.226;2022-11-14T19:48:53;19.13;;;17.23;;
18893;SDS011;9579;49.488;8.226;2022-11-14T19:51:41;15.60;;;14.17;;
18893;SDS011;9579;49.488;8.226;2022-11-14T19:54:28;14.10;;;12.70;;
18893;SDS011;9579;49.488;8.226;2022-11-14T19:57:15;14.37;;;13.07;;
18893;SDS011;9579;49.488;8.226;2022-11-14T20:00:04;13.67;;;12.47;;
18893;SDS011;9579;49.488;8.226;2022-11-14T20:02:54;14.43;;;13.13;;
18893;SDS011;9579;49.488;8.226;2022-11-14T20:05:42;14.97;;;13.63;;
18893;SDS011;9579;49.488;8.226;2022-11-14T20:08:29;14.77;;;13.37;;
18893;SDS011;9579;49.488;8.226;2022-11-14T20:11:16;14.97;;;13.57;;
18893;SDS011;9579;49.488;8.226;2022-11-14T20:14:03;15.93;;;14.53;;
18893;SDS011;9579;49.488;8.226;2022-11-14T20:16:52;14.03;;;12.73;;
18893;SDS011;9579;49.488;8.226;2022-11-14T20:19:41;13.30;;;12.10;;
18893;SDS011;9579;49.488;8.226;2022-11-14T20:22:28;13.87;;;12.47;;
18893;SDS011;9579;49.488;8.226;2022-11-14T20:25:15;13.60;;;12.30;;
18893;SDS011;9579;49.488;8.226;2022-11-14T20:28:03;14.17;;;12.80;;
18893;SDS011;9579;49.488;8.226;2022-11-14T20:30:52;14.70;;;13.30;;
18893;SDS011;9579;49.488;8.226;2022-11-14T20:33:42;14.20;;;12.90;;
18893;SDS011;9579;49.488;8.226;2022-11-14T20:36:31;15.07;;;13.57;;
18893;SDS011;9579;49.488;8.226;2022-11-14T20:39:18;14.07;;;12.87;;
18893;SDS011;9579;49.488;8.226;2022-11-14T20:42:05;13.87;;;12.60;;
18893;SDS011;9579;49.488;8.226;2022-11-14T20:44:52;14.37;;;12.87;;
18893;SDS011;9579;49.488;8.226;2022-11-14T20:47:39;14.17;;;12.87;;
18893;SDS011;9579;49.488;8.226;2022-11-14T20:50:29;14.07;;;12.77;;
18893;SDS011;9579;49.488;8.226;2022-11-14T20:53:16;13.70;;;12.50;;
18893;SDS011;9579;49.488;8.226;2022-11-14T20:56:04;13.87;;;12.57;;
18893;SDS011;9579;49.488;8.226;2022-11-14T20:58:51;16.03;;;14.43;;
18893;SDS011;9579;49.488;8.226;2022-11-14T21:01:38;18.70;;;16.90;;
18893;SDS011;9579;49.488;8.226;2022-11-14T21:04:25;17.93;;;16.23;;
18893;SDS011;9579;49.488;8.226;2022-11-14T21:07:14;18.57;;;16.77;;
18893;SDS011;9579;49.488;8.226;2022-11-14T21:10:01;16.83;;;15.20;;
18893;SDS011;9579;49.488;8.226;2022-11-14T21:13:06;15.97;;;14.50;;
18893;SDS011;9579;49.488;8.226;2022-11-14T21:16:11;14.70;;;13.33;;
18893;SDS011;9579;49.488;8.226;2022-11-14T21:18:59;15.20;;;13.70;;
18893;SDS011;9579;49.488;8.226;2022-11-14T21:21:47;15.13;;;13.67;;
18893;SDS011;9579;49.488;8.226;2022-11-14T21:24:35;16.50;;;15.00;;
18893;SDS011;9579;49.488;8.226;2022-11-14T21:27:24;15.80;;;14.30;;
18893;SDS011;9579;49.488;8.226;2022-11-14T21:30:12;15.30;;;13.90;;
18893;SDS011;9579;49.488;8.226;2022-11-14T21:32:59;14.00;;;12.60;;
18893;SDS011;9579;49.488;8.226;2022-11-14T21:35:47;14.43;;;13.03;;
18893;SDS011;9579;49.488;8.226;2022-11-14T21:38:35;13.37;;;12.17;;
18893;SDS011;9579;49.488;8.226;2022-11-14T21:41:26;12.67;;;11.47;;
18893;SDS011;9579;49.488;8.226;2022-11-14T21:44:15;13.13;;;11.93;;
18893;SDS011;9579;49.488;8.226;2022-11-14T21:47:03;12.40;;;11.30;;
18893;SDS011;9579;49.488;8.226;2022-11-14T21:49:52;12.90;;;11.70;;
18893;SDS011;9579;49.488;8.226;2022-11-14T21:52:41;12.47;;;11.27;;
18893;SDS011;9579;49.488;8.226;2022-11-14T21:55:31;12.07;;;10.97;;
18893;SDS011;9579;49.488;8.226;2022-11-14T21:58:21;13.97;;;12.00;;
18893;SDS011;9579;49.488;8.226;2022-11-14T22:01:08;12.83;;;11.73;;
18893;SDS011;9579;49.488;8.226;2022-11-14T22:03:57;13.00;;;11.90;;
18893;SDS011;9579;49.488;8.226;2022-11-14T22:06:58;12.63;;;11.53;;
18893;SDS011;9579;49.488;8.226;2022-11-14T22:09:47;13.17;;;11.87;;
18893;SDS011;9579;49.488;8.226;2022-11-14T22:12:35;12.90;;;11.80;;
18893;SDS011;9579;49.488;8.226;2022-11-14T22:15:23;12.57;;;11.47;;
18893;SDS011;9579;49.488;8.226;2022-11-14T22:18:11;11.13;;;10.07;;
18893;SDS011;9579;49.488;8.226;2022-11-14T22:20:58;10.77;;;9.77;;
18893;SDS011;9579;49.488;8.226;2022-11-14T22:23:45;11.00;;;9.90;;
18893;SDS011;9579;49.488;8.226;2022-11-14T22:26:32;11.03;;;9.97;;
18893;SDS011;9579;49.488;8.226;2022-11-14T22:29:24;11.27;;;10.30;;
18893;SDS011;9579;49.488;8.226;2022-11-14T22:32:14;11.00;;;9.80;;
18893;SDS011;9579;49.488;8.226;2022-11-14T22:35:01;10.10;;;9.10;;
18893;SDS011;9579;49.488;8.226;2022-11-14T22:37:48;9.73;;;8.93;;
18893;SDS011;9579;49.488;8.226;2022-11-14T22:40:35;10.23;;;9.23;;
18893;SDS011;9579;49.488;8.226;2022-11-14T22:43:23;9.40;;;8.60;;
18893;SDS011;9579;49.488;8.226;2022-11-14T22:46:11;8.97;;;8.10;;
18893;SDS011;9579;49.488;8.226;2022-11-14T22:49:00;9.43;;;8.53;;
18893;SDS011;9579;49.488;8.226;2022-11-14T22:51:49;8.87;;;8.07;;
18893;SDS011;9579;49.488;8.226;2022-11-14T22:54:44;8.87;;;8.07;;
18893;SDS011;9579;49.488;8.226;2022-11-14T22:57:31;8.90;;;8.03;;
18893;SDS011;9579;49.488;8.226;2022-11-14T23:00:18;9.60;;;8.70;;
18893;SDS011;9579;49.488;8.226;2022-11-14T23:03:06;9.40;;;8.60;;
18893;SDS011;9579;49.488;8.226;2022-11-14T23:05:54;10.37;;;9.27;;
18893;SDS011;9579;49.488;8.226;2022-11-14T23:08:41;9.80;;;8.90;;
18893;SDS011;9579;49.488;8.226;2022-11-14T23:11:30;10.33;;;9.33;;
18893;SDS011;9579;49.488;8.226;2022-11-14T23:14:17;9.83;;;8.93;;
18893;SDS011;9579;49.488;8.226;2022-11-14T23:17:04;9.60;;;8.73;;
18893;SDS011;9579;49.488;8.226;2022-11-14T23:19:51;10.50;;;9.60;;
18893;SDS011;9579;49.488;8.226;2022-11-14T23:22:40;11.23;;;10.13;;
18893;SDS011;9579;49.488;8.226;2022-11-14T23:25:27;11.33;;;10.23;;
18893;SDS011;9579;49.488;8.226;2022-11-14T23:28:14;10.33;;;9.33;;
